Estación Meteorológica Peña el Pijo (Robertgarden) [ 12/11/18 10:34:39 CET ]

Fecha Hora Presion(HPa) Temp (°C) Humedad % Rocio (°C) Viento ( m/s) Direccion Lluvia 1Hora(mm) Lluvia 24H(mm) LLuvia Total(mm)
2018-Dec-10 01:01:56 1019.800 3.8 73 -0.6         154.88
2018-Dec-10 02:05:15 1019.700 3.3 76 -0.5         154.88
2018-Dec-10 03:01:41 1019.600 2.3 78 -1.2         154.88
2018-Dec-10 04:01:47 1019.500 1.9 80 -1.2         154.88
2018-Dec-10 05:01:48 1018.900 1.3 80 -1.8         154.88
2018-Dec-10 06:01:48 1018.600 0.9 80 -2.2         154.88
2018-Dec-10 07:01:42 1018.600 0.6 79 -2.6         154.88
2018-Dec-10 08:01:39 1018.800 0.6 77 -3.0         154.88
2018-Dec-10 09:01:52 1018.900 0.4 76 -3.4         154.88
2018-Dec-10 10:01:40 1018.900 5.9 67 0.2         154.88
2018-Dec-10 11:01:53 1018.800 12.4 47 1.3         154.88
2018-Dec-10 12:02:04 1017.800 16.6 37 1.7         154.88
2018-Dec-10 13:01:58 1016.900 18.7 30 0.8         154.88
2018-Dec-10 14:01:58 1015.800 20.8 25 -0.2         154.88
2018-Dec-10 15:02:09 1015.400 21.3 22 -1.4         154.88
2018-Dec-10 16:01:47 1014.900 20.2 22 -2.3         154.88
2018-Dec-10 17:01:50 1014.700 16.2 27 -3.0         154.88
2018-Dec-10 18:01:57 1015.100 11.1 39 -2.4         154.88
2018-Dec-10 19:01:31 1015.600 7.0 50 -2.7         154.88
2018-Dec-10 20:01:50 1015.900 4.4 55 -3.9         154.88
2018-Dec-10 21:01:47 1015.900 3.8 60 -3.3         154.88
2018-Dec-10 22:01:47 1015.800 3.1 62 -3.5         154.88
2018-Dec-10 23:01:49 1015.600 2.6 65 -3.3         154.88

Temperatura Máxima:21°    Temperatura Mínima:
Presión Máxima:1019.800 Hpa    Presión Mínima:1014.700 Hpa


Volver